Terminal Aerodrome Forecast
Issued by NWS New Orleans/Baton Rouge, LA

Home | Current Version | Previous Version | Text Only | Print | Product List | Glossary On
Versions: 1 2 3 4 5 6 7 8 9 10 11 12 13
792
FTUS44 KLIX 021721
TAFBTR
TAF
KBTR 021721Z 0218/0318 09010KT P6SM BKN090
     FM030600 09006KT P6SM SCT030 OVC070
     FM031200 07010KT P6SM VCSH SCT025 OVC050=

USA.gov is the U.S. government's official web portal to all federal, state and local government web resources and services.